Time;durP1;ratioP1;P1;durP2;ratioP2;P2;SDS_P1;SDS_P2;PMS_P1;PMS_P2;Temp;Humidity;BMP_temperature;BMP_pressure;BME280_temperature;BME280_humidity;BME280_pressure;Samples;Min_cycle;Max_cycle;Signal;HPM_P1;HPM_P2
2023/05/24 00:00:11;;;;;;;5.22;4.35;;;;;;;12.35;79.43;96266.03;2098920;28;20040;-70
2023/05/24 00:01:13;;;;;;;5.43;3.97;;;;;;;12.34;78.60;96259.09;2098938;28;20040;-71
2023/05/24 00:02:14;;;;;;;5.10;4.05;;;;;;;12.36;78.85;96259.88;2098324;28;20408;-70
2023/05/24 00:03:17;;;;;;;5.13;4.13;;;;;;;12.36;78.68;96257.28;2098528;28;20056;-70
2023/05/24 00:04:18;;;;;;;5.88;3.88;;;;;;;12.35;79.02;96252.16;2099122;28;20044;-70
2023/05/24 00:05:19;;;;;;;10.02;4.38;;;;;;;12.36;78.25;96253.84;2099266;28;20059;-71
2023/05/24 00:06:20;;;;;;;5.55;4.20;;;;;;;12.37;78.19;96255.50;2099167;28;20045;-71
2023/05/24 00:07:21;;;;;;;4.90;4.10;;;;;;;12.37;78.48;96245.09;2098895;28;20407;-71
2023/05/24 00:08:23;;;;;;;6.03;3.97;;;;;;;12.34;78.31;96240.88;2098945;28;20047;-71
2023/05/24 00:09:24;;;;;;;5.97;4.10;;;;;;;12.31;78.81;96245.41;2099086;28;20046;-71
2023/05/24 00:10:25;;;;;;;6.20;4.28;;;;;;;12.28;78.53;96245.56;2098933;28;20480;-71
2023/05/24 00:11:26;;;;;;;5.70;4.30;;;;;;;12.26;78.65;96237.81;2098463;28;20067;-71
2023/05/24 00:12:27;;;;;;;7.03;4.40;;;;;;;12.21;78.62;96223.34;2099168;28;20055;-71
2023/05/24 00:13:28;;;;;;;5.20;4.05;;;;;;;12.26;78.66;96240.41;2098955;28;20488;-71
2023/05/24 00:14:29;;;;;;;4.93;4.07;;;;;;;12.27;78.39;96243.88;2098224;28;20142;-71
2023/05/24 00:15:30;;;;;;;6.50;4.50;;;;;;;12.27;78.72;96236.91;2098872;28;20044;-71
2023/05/24 00:16:32;;;;;;;5.03;4.25;;;;;;;12.26;78.64;96242.19;2099153;28;20048;-72
2023/05/24 00:17:39;;;;;;;6.75;4.45;;;;;;;12.24;77.80;96244.03;2098833;28;20464;-71
2023/05/24 00:18:40;;;;;;;6.47;4.70;;;;;;;12.18;78.06;96229.56;2099134;28;20048;-71
2023/05/24 00:19:41;;;;;;;6.47;4.60;;;;;;;12.18;78.00;96233.91;2098786;28;20056;-71
2023/05/24 00:20:43;;;;;;;5.97;4.63;;;;;;;12.23;77.34;96247.56;2098238;28;20503;-70
2023/05/24 00:21:44;;;;;;;5.72;4.43;;;;;;;12.24;78.31;96247.50;2098787;28;20048;-71
2023/05/24 00:22:46;;;;;;;6.43;4.00;;;;;;;12.21;77.08;96244.19;2089722;28;20048;-71
2023/05/24 00:23:47;;;;;;;6.10;4.40;;;;;;;12.20;77.60;96245.94;2090482;28;20045;-71
2023/05/24 00:24:48;;;;;;;6.78;4.47;;;;;;;12.18;77.06;96250.38;2098915;28;20044;-71
2023/05/24 00:25:50;;;;;;;5.68;4.30;;;;;;;12.22;77.26;96249.31;2099027;28;20047;-70
2023/05/24 00:26:51;;;;;;;4.68;4.05;;;;;;;12.24;77.55;96250.09;2099100;28;20040;-71
2023/05/24 00:27:52;;;;;;;5.80;4.05;;;;;;;12.21;77.98;96245.00;2098240;28;20052;-71
2023/05/24 00:28:53;;;;;;;6.25;4.60;;;;;;;12.25;76.65;96249.16;2098758;28;20040;-71
2023/05/24 00:29:54;;;;;;;6.53;4.97;;;;;;;12.19;76.40;96243.41;2098959;28;20360;-71
2023/05/24 00:30:58;;;;;;;6.43;4.10;;;;;;;12.17;76.75;96250.47;2089806;28;20480;-71
2023/05/24 00:31:59;;;;;;;5.82;4.22;;;;;;;12.16;76.96;96240.97;2089732;28;20044;-71
2023/05/24 00:33:00;;;;;;;5.57;4.22;;;;;;;12.18;76.91;96244.34;2098743;28;20049;-71
2023/05/24 00:34:02;;;;;;;5.78;4.13;;;;;;;12.19;77.24;96249.47;2089819;28;20356;-71
2023/05/24 00:35:03;;;;;;;5.72;4.20;;;;;;;12.16;77.97;96236.59;2080940;28;20054;-71
2023/05/24 00:36:05;;;;;;;5.93;4.22;;;;;;;12.21;77.49;96241.56;2090318;28;20055;-71
2023/05/24 00:37:07;;;;;;;4.85;4.25;;;;;;;12.22;77.65;96245.88;2098146;28;20456;-71
2023/05/24 00:38:08;;;;;;;6.15;4.40;;;;;;;12.23;78.39;96244.94;2098862;28;20045;-71
2023/05/24 00:39:09;;;;;;;5.63;4.47;;;;;;;12.21;77.98;96238.97;2089979;28;20045;-70
2023/05/24 00:40:11;;;;;;;4.88;4.00;;;;;;;12.21;78.17;96241.56;2081696;28;20050;-71
2023/05/24 00:41:12;;;;;;;5.90;4.65;;;;;;;12.16;77.58;96236.59;2081464;28;20038;-71
2023/05/24 00:42:13;;;;;;;5.78;4.47;;;;;;;12.14;77.79;96239.28;2089264;28;20057;-70
2023/05/24 00:43:14;;;;;;;5.75;4.40;;;;;;;12.20;77.80;96238.13;2089781;28;20477;-71
2023/05/24 00:44:15;;;;;;;5.95;4.40;;;;;;;12.18;77.92;96237.38;2089652;28;20044;-71
2023/05/24 00:45:16;;;;;;;5.50;4.47;;;;;;;12.19;77.65;96233.84;2098247;28;20075;-71
2023/05/24 00:46:19;;;;;;;5.88;4.30;;;;;;;12.18;78.34;96236.53;2089506;28;20232;-71
2023/05/24 00:47:20;;;;;;;5.10;4.40;;;;;;;12.19;77.87;96233.00;2073475;28;20054;-72
2023/05/24 00:48:22;;;;;;;6.32;4.40;;;;;;;12.20;78.29;96224.28;2073582;28;20524;-71
2023/05/24 00:49:24;;;;;;;8.95;5.50;;;;;;;12.16;77.51;96230.53;2073261;28;20050;-72
2023/05/24 00:50:25;;;;;;;7.07;4.80;;;;;;;12.09;77.40;96225.66;2073752;28;20053;-71
2023/05/24 00:51:26;;;;;;;7.00;5.00;;;;;;;12.12;77.52;96230.69;2073456;28;20492;-71
2023/05/24 00:52:27;;;;;;;9.68;5.10;;;;;;;12.12;77.83;96225.50;2081649;28;20049;-72
2023/05/24 00:53:29;;;;;;;5.82;4.82;;;;;;;12.14;77.45;96225.44;2089792;28;20532;-72
2023/05/24 00:54:30;;;;;;;5.78;4.57;;;;;;;12.12;77.72;96224.66;2081127;28;20053;-72
2023/05/24 00:55:33;;;;;;;6.05;4.55;;;;;;;12.09;77.65;96210.03;2081595;28;20540;-71
2023/05/24 00:56:34;;;;;;;5.95;4.95;;;;;;;12.05;77.95;96212.84;2089591;28;20064;-71
2023/05/24 00:57:35;;;;;;;7.10;5.50;;;;;;;12.13;79.23;96229.81;2073493;28;20046;-71
2023/05/24 00:58:36;;;;;;;6.35;5.20;;;;;;;12.11;79.04;96229.03;2081432;28;20053;-71
2023/05/24 00:59:37;;;;;;;10.98;5.70;;;;;;;12.13;78.89;96226.34;2089378;28;20044;-71
2023/05/24 01:00:39;;;;;;;8.13;6.05;;;;;;;12.19;79.09;96235.59;2080926;28;20053;-72
2023/05/24 01:01:40;;;;;;;6.13;5.00;;;;;;;12.14;79.14;96228.88;2073261;28;20062;-72
2023/05/24 01:02:41;;;;;;;6.28;5.05;;;;;;;12.12;78.89;96229.88;2073288;28;20054;-71
2023/05/24 01:03:42;;;;;;;8.15;5.38;;;;;;;12.13;79.33;96232.41;2081482;28;20052;-72
2023/05/24 01:04:47;;;;;;;6.05;5.20;;;;;;;12.12;79.58;96228.09;2081436;28;20045;-71
2023/05/24 01:05:48;;;;;;;7.03;5.38;;;;;;;12.15;78.96;96229.72;2089943;28;20041;-71
2023/05/24 01:07:04;;;;;;;8.82;5.82;;;;;;;12.13;78.50;96231.53;2088655;28;20052;-70
2023/05/24 01:08:18;;;;;;;7.10;5.68;;;;;;;12.16;79.58;96231.38;2081552;28;20041;-71
2023/05/24 01:09:55;;;;;;;6.72;5.30;;;;;;;12.18;79.64;96231.31;2075476;28;20449;-72
2023/05/24 01:11:10;;;;;;;6.47;5.13;;;;;;;12.11;79.05;96226.44;2070242;28;20064;-71
2023/05/24 01:12:13;;;;;;;6.50;5.70;;;;;;;12.11;79.64;96234.22;2070094;28;20487;-72
2023/05/24 01:13:43;;;;;;;7.78;6.53;;;;;;;12.11;79.24;96231.63;2090377;28;20044;-71
2023/05/24 01:15:10;;;;;;;6.63;5.57;;;;;;;12.11;79.72;96226.44;2089577;28;20104;-72
2023/05/24 01:16:16;;;;;;;7.90;6.32;;;;;;;12.02;80.07;96213.00;2067053;28;20057;-72
2023/05/24 01:17:28;;;;;;;7.15;5.88;;;;;;;12.08;80.24;96228.31;2081968;28;20061;-72
2023/05/24 01:18:34;;;;;;;8.02;6.40;;;;;;;12.01;80.89;96225.19;2066493;28;20047;-72
2023/05/24 01:20:13;;;;;;;7.43;6.07;;;;;;;12.04;80.56;96222.44;2058650;28;20051;-72
2023/05/24 01:21:39;;;;;;;8.57;6.70;;;;;;;12.03;80.51;96230.31;2090520;28;20060;-72
2023/05/24 01:22:57;;;;;;;8.05;6.72;;;;;;;12.02;80.71;96228.63;2089281;28;20052;-71
2023/05/24 01:24:18;;;;;;;9.25;7.13;;;;;;;11.92;80.58;96220.41;2083658;28;20061;-71
2023/05/24 01:25:40;;;;;;;8.82;6.55;;;;;;;11.96;80.59;96234.16;2084272;28;20090;-71
2023/05/24 01:26:57;;;;;;;10.13;6.55;;;;;;;11.94;81.25;96233.38;2089648;28;20400;-71
2023/05/24 01:27:58;;;;;;;8.25;6.57;;;;;;;11.96;80.51;96231.53;2089496;28;20037;-71
2023/05/24 01:28:59;;;;;;;9.52;6.65;;;;;;;12.00;80.45;96230.47;2081212;28;20040;-71
2023/05/24 01:30:01;;;;;;;7.82;6.45;;;;;;;12.04;80.30;96235.44;2089359;28;20447;-70
2023/05/24 01:31:02;;;;;;;8.07;6.68;;;;;;;12.05;80.29;96233.69;2090046;28;20365;-70
2023/05/24 01:32:03;;;;;;;8.18;6.82;;;;;;;12.01;80.26;96235.59;2088941;28;20124;-72
2023/05/24 01:33:04;;;;;;;8.25;6.55;;;;;;;11.98;80.88;96227.09;2088966;28;20049;-71
2023/05/24 01:34:07;;;;;;;8.52;6.95;;;;;;;11.98;80.37;96237.53;2090025;28;20045;-71
2023/05/24 01:35:08;;;;;;;9.38;7.30;;;;;;;11.96;80.10;96234.97;2080728;28;20481;-71
2023/05/24 01:36:10;;;;;;;9.77;7.07;;;;;;;11.86;80.89;96231.13;2073144;28;20050;-71
2023/05/24 01:37:11;;;;;;;8.35;6.88;;;;;;;11.89;80.27;96242.25;2088998;28;20087;-71
2023/05/24 01:38:14;;;;;;;8.52;7.22;;;;;;;11.88;80.60;96242.31;2089583;28;20503;-71
2023/05/24 01:39:16;;;;;;;8.60;7.03;;;;;;;11.88;80.28;96242.31;2090084;28;20048;-71
2023/05/24 01:40:17;;;;;;;8.20;6.47;;;;;;;11.91;80.24;96247.38;2089548;28;20052;-71
2023/05/24 01:41:33;;;;;;;9.27;7.20;;;;;;;11.88;80.30;96243.16;2072975;28;20054;-71
2023/05/24 01:42:45;;;;;;;10.55;7.28;;;;;;;11.83;79.59;96245.09;2083580;28;20041;-71
2023/05/24 01:43:52;;;;;;;9.75;7.25;;;;;;;11.82;79.61;96247.78;2089440;28;20068;-70
2023/05/24 01:45:13;;;;;;;9.75;7.20;;;;;;;11.68;79.51;96251.91;2081666;28;20053;-71
2023/05/24 01:46:34;;;;;;;9.25;7.15;;;;;;;11.70;79.54;96250.03;2075449;28;20127;-71
2023/05/24 01:47:46;;;;;;;9.65;7.10;;;;;;;11.61;79.89;96242.69;2077933;28;20105;-71
2023/05/24 01:48:56;;;;;;;12.13;7.03;;;;;;;11.66;79.85;96252.88;2076320;28;20517;-71
2023/05/24 01:49:59;;;;;;;8.85;7.20;;;;;;;11.60;80.21;96246.22;2089564;28;20053;-71
2023/05/24 01:51:05;;;;;;;10.48;7.60;;;;;;;11.47;80.23;96232.94;2064787;28;20130;-71
2023/05/24 01:52:14;;;;;;;9.20;7.97;;;;;;;11.55;80.99;96252.56;2067130;28;20045;-71
2023/05/24 01:53:17;;;;;;;10.10;7.60;;;;;;;11.53;80.54;96249.19;2082845;28;20060;-71
2023/05/24 01:54:19;;;;;;;10.68;8.13;;;;;;;11.54;80.10;96250.84;2081233;28;20057;-70
2023/05/24 01:55:21;;;;;;;12.57;7.85;;;;;;;11.43;77.90;96238.34;2073122;28;20057;-71
2023/05/24 01:56:22;;;;;;;11.27;7.45;;;;;;;11.44;78.46;96253.91;2072824;28;20037;-71
2023/05/24 01:57:23;;;;;;;9.30;7.40;;;;;;;11.46;78.46;96257.25;2064617;28;20050;-71
2023/05/24 01:58:25;;;;;;;10.27;6.43;;;;;;;11.39;77.34;96235.06;2064063;28;20050;-71
2023/05/24 01:59:26;;;;;;;10.20;6.10;;;;;;;11.42;76.73;96249.69;2064525;28;20351;-71
2023/05/24 02:00:27;;;;;;;11.00;7.00;;;;;;;11.38;76.66;96251.56;2056804;28;20073;-71
2023/05/24 02:01:28;;;;;;;11.50;6.93;;;;;;;11.37;76.19;96256.84;2064792;28;20050;-71
2023/05/24 02:02:29;;;;;;;9.20;6.20;;;;;;;11.39;75.09;96260.22;2080853;28;20052;-71
2023/05/24 02:03:30;;;;;;;8.15;5.88;;;;;;;11.36;75.52;96247.34;2081196;28;20056;-71
2023/05/24 02:04:31;;;;;;;10.50;6.85;;;;;;;11.38;74.73;96254.16;2064207;28;20061;-71
2023/05/24 02:05:32;;;;;;;10.82;6.55;;;;;;;11.36;75.41;96255.13;2056647;28;20054;-71
2023/05/24 02:06:33;;;;;;;9.40;6.80;;;;;;;11.33;75.85;96256.13;2080636;28;20108;-70
2023/05/24 02:07:35;;;;;;;9.05;6.32;;;;;;;11.29;76.02;96254.59;2089546;28;20061;-71
2023/05/24 02:08:36;;;;;;;10.00;6.50;;;;;;;11.32;76.00;96256.22;2089141;28;20049;-71
2023/05/24 02:09:37;;;;;;;9.95;7.05;;;;;;;11.29;76.30;96249.41;2089586;28;20489;-71
2023/05/24 02:10:39;;;;;;;10.15;6.53;;;;;;;11.15;76.32;96231.84;2089940;28;20057;-71
2023/05/24 02:11:40;;;;;;;9.95;7.28;;;;;;;11.21;76.57;96249.75;2088500;28;20049;-71
2023/05/24 02:12:41;;;;;;;10.30;6.78;;;;;;;11.23;76.01;96262.69;2089176;28;20500;-71
2023/05/24 02:13:42;;;;;;;9.57;6.68;;;;;;;11.19;75.19;96259.34;2089803;28;20040;-72
2023/05/24 02:14:43;;;;;;;9.57;6.63;;;;;;;11.17;75.83;96258.59;2089825;28;20045;-71
2023/05/24 02:15:46;;;;;;;9.20;5.97;;;;;;;11.19;75.09;96258.53;2089171;28;20060;-71
2023/05/24 02:16:49;;;;;;;9.95;6.18;;;;;;;11.15;75.63;96263.03;2080345;28;20049;-70
2023/05/24 02:17:53;;;;;;;9.15;5.70;;;;;;;11.14;76.48;96260.47;2080970;28;20060;-72
2023/05/24 02:18:54;;;;;;;10.65;6.07;;;;;;;11.16;76.36;96262.09;2089278;28;20040;-71
2023/05/24 02:19:55;;;;;;;9.00;6.45;;;;;;;11.15;74.79;96255.22;2089010;28;20060;-71
2023/05/24 02:20:56;;;;;;;10.20;5.93;;;;;;;11.15;74.96;96260.44;2089759;28;20041;-71
2023/05/24 02:21:57;;;;;;;8.27;5.93;;;;;;;11.17;75.44;96245.63;2089901;28;20049;-70
2023/05/24 02:22:58;;;;;;;9.65;6.75;;;;;;;11.20;75.32;96250.66;2089169;28;20497;-70
2023/05/24 02:24:00;;;;;;;10.45;6.65;;;;;;;11.21;75.45;96244.53;2080907;28;20049;-71
2023/05/24 02:25:01;;;;;;;9.07;6.10;;;;;;;11.10;75.30;96230.38;2089236;28;20037;-71
2023/05/24 02:26:02;;;;;;;13.63;6.30;;;;;;;11.17;75.21;96245.63;2089765;28;20465;-71
2023/05/24 02:27:04;;;;;;;9.60;5.95;;;;;;;11.07;74.61;96233.94;2089917;28;20037;-69
2023/05/24 02:28:05;;;;;;;8.90;6.30;;;;;;;11.12;75.02;96247.56;2089133;28;20048;-69
2023/05/24 02:29:06;;;;;;;11.23;7.18;;;;;;;11.13;74.86;96238.84;2089019;28;20404;-69
2023/05/24 02:30:07;;;;;;;11.73;6.05;;;;;;;11.03;75.71;96238.41;2088938;28;20045;-69
2023/05/24 02:31:09;;;;;;;11.35;6.30;;;;;;;11.06;74.63;96247.81;2089675;28;20151;-69
2023/05/24 02:32:10;;;;;;;7.90;5.75;;;;;;;11.06;74.28;96245.22;2088435;28;20408;-69
2023/05/24 02:33:11;;;;;;;8.93;5.40;;;;;;;11.08;74.57;96245.19;2088464;28;20056;-69
2023/05/24 02:34:12;;;;;;;10.15;5.82;;;;;;;11.04;74.48;96250.50;2089701;28;20413;-69
2023/05/24 02:35:13;;;;;;;8.23;4.88;;;;;;;11.03;74.42;96248.81;2089315;28;20081;-70
2023/05/24 02:36:14;;;;;;;9.40;5.30;;;;;;;11.02;74.37;96244.53;2080739;28;20056;-69
2023/05/24 02:37:15;;;;;;;7.60;5.18;;;;;;;11.07;73.51;96248.69;2072149;28;20505;-68
2023/05/24 02:38:16;;;;;;;9.43;4.93;;;;;;;11.04;73.07;96241.88;2089071;28;20045;-70
2023/05/24 02:39:18;;;;;;;8.27;4.78;;;;;;;11.05;73.37;96246.16;2089747;28;20048;-69
2023/05/24 02:40:19;;;;;;;8.57;5.07;;;;;;;11.06;72.82;96247.81;2089276;28;20041;-69
2023/05/24 02:41:20;;;;;;;8.88;5.25;;;;;;;11.03;73.11;96246.22;2089088;28;20045;-69
2023/05/24 02:42:22;;;;;;;8.43;5.00;;;;;;;11.00;72.66;96248.13;2089835;28;20049;-69
2023/05/24 02:43:23;;;;;;;7.43;4.72;;;;;;;10.99;72.30;96242.09;2089290;28;20334;-69
2023/05/24 02:44:24;;;;;;;8.02;4.82;;;;;;;11.00;72.97;96242.91;2089772;28;20044;-69
2023/05/24 02:45:25;;;;;;;9.93;4.95;;;;;;;10.97;73.05;96246.50;2089024;28;20061;-69
2023/05/24 02:46:26;;;;;;;8.15;4.93;;;;;;;10.99;72.50;96246.44;2088494;28;20417;-69
2023/05/24 02:47:27;;;;;;;8.55;4.30;;;;;;;10.95;72.27;96244.88;2089293;28;20056;-69
2023/05/24 02:48:28;;;;;;;8.55;4.75;;;;;;;10.92;73.29;96238.06;2089131;28;20055;-69
2023/05/24 02:49:30;;;;;;;8.27;5.30;;;;;;;10.88;72.36;96235.66;2088989;28;20049;-69
2023/05/24 02:50:31;;;;;;;8.27;4.80;;;;;;;10.89;72.31;96232.16;2088799;28;20048;-70
2023/05/24 02:51:32;;;;;;;8.80;4.53;;;;;;;10.87;72.22;96236.59;2080802;28;20049;-69
2023/05/24 02:52:33;;;;;;;7.10;4.60;;;;;;;10.85;72.13;96234.03;2080773;28;20053;-69
2023/05/24 02:53:34;;;;;;;9.25;4.63;;;;;;;10.85;71.54;96228.00;2089021;28;20332;-69
2023/05/24 02:54:35;;;;;;;7.22;4.25;;;;;;;10.85;71.72;96234.03;2088914;28;20049;-68
2023/05/24 02:55:38;;;;;;;9.07;4.70;;;;;;;10.84;71.59;96239.31;2080990;28;20049;-69
2023/05/24 02:56:39;;;;;;;9.23;5.13;;;;;;;10.82;71.89;96237.66;2080947;28;20049;-69
2023/05/24 02:57:41;;;;;;;8.70;5.00;;;;;;;10.84;72.96;96232.38;2080643;28;20402;-69
2023/05/24 02:58:43;;;;;;;8.57;4.45;;;;;;;10.80;72.82;96226.47;2080734;28;20073;-69
2023/05/24 02:59:45;;;;;;;8.43;5.18;;;;;;;10.75;72.48;96230.19;2088692;28;20052;-69
2023/05/24 03:00:46;;;;;;;10.25;4.63;;;;;;;10.78;72.97;96230.88;2088165;28;20156;-69
2023/05/24 03:01:47;;;;;;;7.65;4.93;;;;;;;10.77;73.37;96237.00;2089103;28;20052;-69
2023/05/24 03:02:49;;;;;;;11.40;5.40;;;;;;;10.70;73.65;96235.56;2089509;28;20044;-69
2023/05/24 03:03:50;;;;;;;9.23;5.55;;;;;;;10.67;73.53;96238.31;2088527;28;20136;-69
2023/05/24 03:04:51;;;;;;;10.77;5.03;;;;;;;10.65;73.14;96239.28;2089006;28;20041;-69
2023/05/24 03:05:53;;;;;;;10.10;4.95;;;;;;;10.65;73.67;96228.91;2088939;28;20052;-69
2023/05/24 03:06:54;;;;;;;11.38;4.90;;;;;;;10.60;73.25;96227.34;2088592;28;20049;-69
2023/05/24 03:07:57;;;;;;;9.98;5.20;;;;;;;10.63;73.66;96230.72;2088318;28;20052;-69
2023/05/24 03:08:58;;;;;;;9.20;5.35;;;;;;;10.64;73.40;96238.44;2080985;28;20477;-69
2023/05/24 03:10:00;;;;;;;11.43;5.28;;;;;;;10.66;73.95;96233.16;2079987;28;20049;-68
2023/05/24 03:11:01;;;;;;;9.63;5.20;;;;;;;10.66;74.01;96238.38;2089118;28;20045;-69
2023/05/24 03:12:02;;;;;;;10.55;5.45;;;;;;;10.66;74.44;96236.59;2089128;28;20505;-69
2023/05/24 03:13:07;;;;;;;8.63;4.95;;;;;;;10.64;74.33;96235.84;2088181;28;20068;-69
2023/05/24 03:14:10;;;;;;;9.55;5.38;;;;;;;10.62;73.66;96239.44;2080942;28;20046;-68
2023/05/24 03:15:14;;;;;;;11.93;5.95;;;;;;;10.56;74.05;96230.16;2088400;28;20490;-69
2023/05/24 03:16:15;;;;;;;12.73;5.97;;;;;;;10.57;74.62;96231.81;2088805;28;20054;-70
2023/05/24 03:17:17;;;;;;;12.02;6.53;;;;;;;10.57;74.16;96242.22;2080146;28;20065;-69
2023/05/24 03:18:18;;;;;;;10.43;6.30;;;;;;;10.45;74.89;96230.63;2080618;28;20045;-68
2023/05/24 03:19:20;;;;;;;14.32;6.40;;;;;;;10.42;75.57;96233.31;2080570;28;20045;-69
2023/05/24 03:20:23;;;;;;;10.30;6.00;;;;;;;10.37;75.73;96225.75;2080607;28;20073;-69
2023/05/24 03:21:26;;;;;;;12.00;6.72;;;;;;;10.23;76.08;96225.44;2080682;28;20115;-69
2023/05/24 03:22:27;;;;;;;9.75;6.22;;;;;;;10.32;75.83;96239.84;2079941;28;20057;-69
2023/05/24 03:23:28;;;;;;;11.23;6.30;;;;;;;10.29;75.96;96240.81;2080124;28;20133;-69
2023/05/24 03:24:30;;;;;;;12.82;6.35;;;;;;;10.24;75.87;96241.88;2072290;28;20373;-68
2023/05/24 03:25:31;;;;;;;12.20;6.72;;;;;;;10.16;75.64;96245.63;2072541;28;20141;-68
2023/05/24 03:26:33;;;;;;;13.18;6.30;;;;;;;10.14;76.34;96242.25;2072359;28;20433;-69
2023/05/24 03:27:35;;;;;;;12.23;6.43;;;;;;;10.14;76.15;96241.41;2080774;28;20049;-69
2023/05/24 03:28:36;;;;;;;10.43;6.30;;;;;;;10.13;76.56;96240.56;2080405;28;20049;-68
2023/05/24 03:29:38;;;;;;;12.00;6.00;;;;;;;10.05;76.20;96239.16;2080605;28;20052;-68
2023/05/24 03:30:39;;;;;;;11.30;6.47;;;;;;;9.92;76.11;96218.94;2090060;28;20398;-68
2023/05/24 03:31:41;;;;;;;15.10;6.20;;;;;;;10.06;75.71;96243.47;2090319;28;20055;-69
2023/05/24 03:32:43;;;;;;;14.85;6.35;;;;;;;10.04;75.97;96242.69;2081903;28;20099;-67
2023/05/24 03:33:44;;;;;;;12.75;6.65;;;;;;;10.03;76.18;96241.84;2082002;28;20061;-68
2023/05/24 03:34:46;;;;;;;11.13;6.20;;;;;;;10.00;75.87;96244.56;2090250;28;20115;-68
2023/05/24 03:35:48;;;;;;;11.65;6.13;;;;;;;9.96;75.91;96242.16;2090142;28;20041;-69
2023/05/24 03:36:49;;;;;;;14.68;6.15;;;;;;;9.97;76.22;96236.91;2081975;28;20045;-69
2023/05/24 03:37:50;;;;;;;14.27;5.95;;;;;;;9.93;76.74;96246.56;2081968;28;20139;-69
2023/05/24 03:38:52;;;;;;;8.93;6.10;;;;;;;9.86;75.79;96234.75;2090407;28;20048;-70
2023/05/24 03:39:54;;;;;;;13.18;6.65;;;;;;;9.94;76.81;96245.66;2089590;28;20051;-69
2023/05/24 03:41:09;;;;;;;13.43;6.25;;;;;;;9.87;76.43;96233.84;2083856;28;20053;-68
2023/05/24 03:42:10;;;;;;;12.43;6.63;;;;;;;9.92;76.43;96242.28;2081972;28;20042;-69
2023/05/24 03:43:11;;;;;;;10.63;5.60;;;;;;;9.87;76.11;96231.25;2090224;28;20045;-69
2023/05/24 03:44:19;;;;;;;11.68;6.22;;;;;;;9.96;76.11;96240.41;2081779;28;20357;-69
2023/05/24 03:45:20;;;;;;;9.75;6.10;;;;;;;9.90;75.78;96251.03;2073528;28;20054;-70
2023/05/24 03:46:21;;;;;;;11.93;5.75;;;;;;;9.76;75.59;96224.81;2090595;28;20044;-68
2023/05/24 03:47:22;;;;;;;10.35;6.22;;;;;;;9.87;76.42;96251.16;2090081;28;20055;-69
2023/05/24 03:48:23;;;;;;;9.63;5.88;;;;;;;9.84;76.04;96249.53;2090365;28;20044;-68
2023/05/24 03:49:25;;;;;;;10.23;5.57;;;;;;;9.84;76.10;96249.53;2090133;28;20056;-68
2023/05/24 03:50:27;;;;;;;15.65;5.90;;;;;;;9.84;75.73;96252.13;2081885;28;20045;-68
2023/05/24 03:51:30;;;;;;;11.30;6.07;;;;;;;9.86;75.61;96252.91;2082036;28;20045;-69
2023/05/24 03:52:31;;;;;;;12.48;5.85;;;;;;;9.85;75.21;96250.38;2090167;28;20045;-67
2023/05/24 03:53:32;;;;;;;9.15;5.45;;;;;;;9.77;75.85;96252.44;2091087;28;20045;-68
2023/05/24 03:54:34;;;;;;;14.10;5.57;;;;;;;9.77;76.16;96255.03;2089574;28;20061;-68
2023/05/24 03:55:35;;;;;;;12.60;6.15;;;;;;;9.76;76.36;96255.94;2082146;28;20361;-68
2023/05/24 03:56:36;;;;;;;11.90;6.10;;;;;;;9.76;75.68;96254.19;2082045;28;20052;-68
2023/05/24 03:57:37;;;;;;;14.82;6.10;;;;;;;9.74;75.55;96260.34;2090174;28;20078;-68
2023/05/24 03:58:38;;;;;;;12.00;6.20;;;;;;;9.70;76.23;96259.59;2090393;28;20487;-69
2023/05/24 03:59:40;;;;;;;9.98;6.13;;;;;;;9.66;75.39;96253.69;2081460;28;20061;-69
2023/05/24 04:00:41;;;;;;;11.38;5.40;;;;;;;9.58;75.19;96260.09;2081151;28;20053;-69
2023/05/24 04:01:43;;;;;;;12.73;5.95;;;;;;;9.60;75.96;96253.09;2090213;28;20053;-69
2023/05/24 04:02:44;;;;;;;12.55;6.32;;;;;;;9.58;76.24;96257.50;2090032;28;20056;-69
2023/05/24 04:03:46;;;;;;;10.70;5.70;;;;;;;9.61;75.67;96252.19;2089620;28;20450;-69
2023/05/24 04:04:47;;;;;;;10.93;5.85;;;;;;;9.64;75.37;96254.66;2090056;28;20420;-69
2023/05/24 04:05:48;;;;;;;12.70;5.97;;;;;;;9.66;75.88;96248.50;2081812;28;20045;-69
2023/05/24 04:06:49;;;;;;;11.85;5.68;;;;;;;9.61;75.41;96240.06;2081935;28;20045;-69
2023/05/24 04:07:50;;;;;;;7.65;5.03;;;;;;;9.71;75.29;96250.94;2082034;28;20416;-69
2023/05/24 04:08:54;;;;;;;11.30;5.40;;;;;;;9.71;75.73;96256.13;2082006;28;20044;-69
2023/05/24 04:09:55;;;;;;;9.23;5.10;;;;;;;9.70;75.60;96254.41;2072931;28;20469;-69
2023/05/24 04:10:56;;;;;;;10.75;5.65;;;;;;;9.69;75.40;96263.09;2082062;28;20052;-69
2023/05/24 04:11:57;;;;;;;11.15;5.50;;;;;;;9.68;75.27;96259.69;2090134;28;20044;-70
2023/05/24 04:12:59;;;;;;;11.10;5.80;;;;;;;9.66;74.91;96260.63;2090696;28;20041;-70
2023/05/24 04:14:00;;;;;;;10.35;5.43;;;;;;;9.67;74.80;96262.31;2090008;28;20044;-70
2023/05/24 04:15:02;;;;;;;11.07;5.68;;;;;;;9.59;75.29;96254.84;2081503;28;20049;-70
2023/05/24 04:16:03;;;;;;;15.90;5.70;;;;;;;9.61;74.59;96249.59;2082160;28;20057;-70
2023/05/24 04:17:06;;;;;;;11.55;5.43;;;;;;;9.60;74.62;96266.91;2081056;28;20417;-70
2023/05/24 04:18:07;;;;;;;11.27;5.97;;;;;;;9.61;75.51;96267.75;2089836;28;20056;-70
2023/05/24 04:19:09;;;;;;;10.38;5.47;;;;;;;9.51;74.83;96243.91;2089969;28;20052;-70
2023/05/24 04:20:11;;;;;;;11.13;6.22;;;;;;;9.67;74.84;96262.31;2090046;28;20155;-70
2023/05/24 04:21:12;;;;;;;15.85;6.22;;;;;;;9.70;75.33;96259.59;2089250;28;20048;-70
2023/05/24 04:22:13;;;;;;;10.57;5.78;;;;;;;9.73;75.29;96256.91;2081851;28;20445;-70
2023/05/24 04:23:14;;;;;;;12.77;5.80;;;;;;;9.71;74.70;96256.97;2081632;28;20068;-70
2023/05/24 04:24:15;;;;;;;11.05;5.32;;;;;;;9.72;75.15;96261.22;2089149;28;20052;-70
2023/05/24 04:25:18;;;;;;;11.98;5.88;;;;;;;9.58;74.30;96249.72;2089828;28;20052;-70
2023/05/24 04:26:20;;;;;;;11.05;5.45;;;;;;;9.69;74.68;96265.69;2089276;28;20172;-70
2023/05/24 04:27:21;;;;;;;9.40;5.55;;;;;;;9.72;74.67;96270.75;2089806;28;20312;-70
2023/05/24 04:28:22;;;;;;;13.25;5.88;;;;;;;9.75;74.89;96268.03;2081816;28;20408;-70
2023/05/24 04:29:25;;;;;;;12.40;5.68;;;;;;;9.76;74.90;96272.34;2081460;28;20485;-70
2023/05/24 04:30:28;;;;;;;12.98;6.03;;;;;;;9.78;74.20;96273.09;2081164;28;20064;-70
2023/05/24 04:31:32;;;;;;;12.27;6.28;;;;;;;9.80;74.38;96276.50;2081920;28;20057;-70
2023/05/24 04:32:34;;;;;;;14.25;5.82;;;;;;;9.68;74.04;96258.84;2082216;28;20070;-63
2023/05/24 04:33:35;;;;;;;12.20;5.68;;;;;;;9.80;74.42;96273.06;2082061;28;20493;-63
2023/05/24 04:34:41;;;;;;;12.45;6.35;;;;;;;9.84;74.66;96279.81;2089911;28;20052;-62
2023/05/24 04:35:43;;;;;;;11.85;6.00;;;;;;;9.83;74.26;96259.97;2090785;28;20384;-62
2023/05/24 04:36:44;;;;;;;11.63;6.10;;;;;;;9.93;75.03;96269.91;2089721;28;20476;-63
2023/05/24 04:37:47;;;;;;;15.48;6.43;;;;;;;9.89;74.09;96280.47;2081590;28;20050;-62
2023/05/24 04:38:49;;;;;;;13.35;5.63;;;;;;;9.79;73.52;96264.44;2081663;28;20045;-62
2023/05/24 04:39:50;;;;;;;12.35;6.18;;;;;;;9.90;73.50;96283.00;2089783;28;20041;-62
2023/05/24 04:40:51;;;;;;;13.63;5.43;;;;;;;9.86;73.30;96278.00;2081511;28;20512;-62
2023/05/24 04:41:54;;;;;;;14.10;5.65;;;;;;;9.85;72.96;96281.50;2081807;28;20038;-62
2023/05/24 04:42:55;;;;;;;12.30;5.97;;;;;;;9.78;73.81;96278.28;2089815;28;20041;-62
2023/05/24 04:43:58;;;;;;;12.07;5.75;;;;;;;9.73;73.76;96267.28;2090194;28;20163;-62
2023/05/24 04:44:59;;;;;;;10.60;5.90;;;;;;;9.76;73.18;96276.69;2090110;28;20130;-62
2023/05/24 04:46:00;;;;;;;14.43;5.53;;;;;;;9.67;73.32;96277.88;2090423;28;20045;-62
2023/05/24 04:47:02;;;;;;;14.60;5.82;;;;;;;9.62;73.52;96274.63;2090641;28;20037;-62
2023/05/24 04:48:03;;;;;;;10.20;5.88;;;;;;;9.74;73.45;96278.50;2089374;28;20049;-62
2023/05/24 04:49:07;;;;;;;12.00;5.65;;;;;;;9.71;74.01;96280.28;2089237;28;20091;-63
2023/05/24 04:50:08;;;;;;;12.57;5.68;;;;;;;9.72;73.91;96275.94;2090437;28;20045;-63
2023/05/24 04:51:09;;;;;;;13.90;5.88;;;;;;;9.76;74.13;96282.72;2090204;28;20052;-62
2023/05/24 04:52:10;;;;;;;9.82;5.88;;;;;;;9.68;74.20;96269.22;2090314;28;20389;-63
2023/05/24 04:53:12;;;;;;;13.07;5.45;;;;;;;9.78;74.03;96274.84;2090343;28;20047;-62
2023/05/24 04:54:13;;;;;;;14.93;5.88;;;;;;;9.75;74.75;96277.56;2090362;28;20059;-62
2023/05/24 04:55:14;;;;;;;13.80;5.65;;;;;;;9.76;75.03;96277.53;2089867;28;20052;-63